Time;durP1;ratioP1;P1;durP2;ratioP2;P2;SDS_P1;SDS_P2;PMS_P1;PMS_P2;Temp;Humidity;BMP_temperature;BMP_pressure;BME280_temperature;BME280_humidity;BME280_pressure;Samples;Min_cycle;Max_cycle;Signal;HPM_P1;HPM_P2
2022/07/22 00:00:59;;;;;;;7.35;1.90;;;16.40;99.90;;;;;;5095519;28;20076;-75
2022/07/22 00:03:25;;;;;;;10.57;2.00;;;16.40;99.90;;;;;;5094059;28;20080;-75
2022/07/22 00:05:50;;;;;;;9.65;1.80;;;16.50;99.90;;;;;;5094341;28;20044;-75
2022/07/22 00:08:16;;;;;;;7.05;1.85;;;16.50;99.90;;;;;;5095398;28;20427;-75
2022/07/22 00:10:42;;;;;;;7.60;2.03;;;16.50;99.90;;;;;;5095565;28;20399;-75
2022/07/22 00:13:07;;;;;;;8.18;2.97;;;16.50;99.90;;;;;;5094006;28;20076;-75
2022/07/22 00:15:33;;;;;;;5.47;1.80;;;16.50;99.90;;;;;;5093980;28;20058;-75
2022/07/22 00:17:59;;;;;;;8.57;1.77;;;16.50;99.90;;;;;;5093718;28;20036;-75
2022/07/22 00:20:24;;;;;;;15.10;2.63;;;16.50;99.90;;;;;;5095162;28;20052;-75
2022/07/22 00:22:50;;;;;;;10.57;2.10;;;16.50;99.90;;;;;;5093595;28;20384;-75
2022/07/22 00:25:16;;;;;;;7.60;1.70;;;16.50;99.90;;;;;;5093777;28;20087;-75
2022/07/22 00:27:42;;;;;;;13.57;2.80;;;16.50;99.90;;;;;;5093820;28;20127;-75
2022/07/22 00:30:08;;;;;;;9.27;1.90;;;16.50;99.90;;;;;;5093986;28;20463;-75
2022/07/22 00:32:34;;;;;;;7.88;2.08;;;16.50;99.90;;;;;;5093480;28;20052;-75
2022/07/22 00:35:00;;;;;;;9.15;2.20;;;16.50;99.90;;;;;;5093758;28;20094;-75
2022/07/22 00:37:26;;;;;;;8.43;2.10;;;16.40;99.90;;;;;;5093677;28;20387;-75
2022/07/22 00:39:52;;;;;;;12.13;2.22;;;16.40;99.90;;;;;;5093794;28;20040;-75
2022/07/22 00:42:17;;;;;;;3.60;1.25;;;16.40;99.90;;;;;;5094857;28;20197;-75
2022/07/22 00:44:43;;;;;;;8.35;1.80;;;16.40;99.90;;;;;;5093564;28;20087;-75
2022/07/22 00:47:10;;;;;;;6.47;1.50;;;16.40;99.90;;;;;;5093545;28;20047;-75
2022/07/22 00:49:35;;;;;;;10.63;2.20;;;16.40;99.90;;;;;;5093249;28;20407;-75
2022/07/22 00:52:01;;;;;;;6.38;1.90;;;16.40;99.90;;;;;;5093237;28;20040;-75
2022/07/22 00:54:27;;;;;;;9.95;2.00;;;16.50;99.90;;;;;;5094565;28;20047;-75
2022/07/22 00:56:53;;;;;;;11.00;1.80;;;16.50;99.90;;;;;;5093242;28;20036;-75
2022/07/22 00:59:20;;;;;;;7.05;1.85;;;16.50;99.90;;;;;;5094365;28;20040;-75
2022/07/22 01:01:45;;;;;;;8.32;1.95;;;16.40;99.90;;;;;;5093254;28;20040;-75
2022/07/22 01:04:12;;;;;;;8.52;2.53;;;16.50;99.90;;;;;;5094223;28;20067;-75
2022/07/22 01:06:37;;;;;;;8.45;2.10;;;16.40;99.90;;;;;;5093042;28;20102;-75
2022/07/22 01:09:03;;;;;;;11.13;2.42;;;16.40;99.90;;;;;;5094138;28;20036;-75
2022/07/22 01:11:28;;;;;;;7.15;1.55;;;16.40;99.90;;;;;;5093062;28;20039;-75
2022/07/22 01:13:56;;;;;;;6.00;1.85;;;16.40;99.90;;;;;;5092935;28;20116;-75
2022/07/22 01:16:23;;;;;;;7.40;1.77;;;16.40;99.90;;;;;;5092982;28;20062;-75
2022/07/22 01:18:48;;;;;;;7.85;1.23;;;16.40;99.90;;;;;;5092842;28;20479;-75
2022/07/22 01:21:15;;;;;;;5.97;1.50;;;16.30;99.90;;;;;;5092761;28;20042;-75
2022/07/22 01:23:42;;;;;;;5.72;1.38;;;16.30;99.90;;;;;;5092596;28;20188;-75
2022/07/22 01:26:08;;;;;;;5.45;1.35;;;16.30;99.90;;;;;;5094054;28;20044;-75
2022/07/22 01:28:33;;;;;;;7.43;1.65;;;16.30;99.90;;;;;;5092712;28;20047;-75
2022/07/22 01:30:59;;;;;;;7.10;1.45;;;16.30;99.90;;;;;;5094041;28;20048;-75
2022/07/22 01:33:25;;;;;;;7.00;1.65;;;16.20;99.90;;;;;;5093843;28;20479;-75
2022/07/22 01:35:51;;;;;;;10.75;1.77;;;16.30;99.90;;;;;;5092856;28;20075;-75
2022/07/22 01:38:18;;;;;;;8.00;1.50;;;16.30;99.90;;;;;;5092503;28;20441;-75
2022/07/22 01:40:44;;;;;;;6.22;1.55;;;16.30;99.90;;;;;;5093244;28;20044;-75
2022/07/22 01:43:11;;;;;;;7.07;1.80;;;16.20;99.90;;;;;;5092381;28;20047;-75
2022/07/22 01:45:37;;;;;;;8.05;1.85;;;16.30;99.90;;;;;;5092694;28;20059;-75
2022/07/22 01:48:03;;;;;;;10.02;2.35;;;16.30;99.90;;;;;;5093773;28;20040;-75
2022/07/22 01:50:29;;;;;;;9.68;2.08;;;16.30;99.90;;;;;;5092664;28;20052;-75
2022/07/22 01:52:55;;;;;;;9.15;1.63;;;16.30;99.90;;;;;;5093722;28;20048;-75
2022/07/22 01:55:20;;;;;;;4.20;1.30;;;16.30;99.90;;;;;;5092675;28;20050;-75
2022/07/22 01:57:46;;;;;;;5.22;1.65;;;16.30;99.90;;;;;;5092317;28;20036;-75
2022/07/22 02:00:12;;;;;;;7.40;2.00;;;16.40;99.90;;;;;;5092243;28;20044;-75
2022/07/22 02:02:38;;;;;;;7.07;2.22;;;16.40;99.90;;;;;;5093668;28;20089;-75
2022/07/22 02:05:05;;;;;;;7.00;1.80;;;16.30;99.90;;;;;;5092345;28;20052;-75
2022/07/22 02:07:32;;;;;;;7.43;1.70;;;16.30;99.90;;;;;;5093568;28;20453;-75
2022/07/22 02:09:58;;;;;;;7.85;1.90;;;16.30;99.90;;;;;;5093573;28;20467;-75
2022/07/22 02:12:24;;;;;;;9.48;1.90;;;16.20;99.90;;;;;;5092335;28;20085;-75
2022/07/22 02:14:50;;;;;;;3.75;1.77;;;16.20;99.90;;;;;;5092130;28;20399;-75
2022/07/22 02:17:15;;;;;;;6.07;1.55;;;16.30;99.90;;;;;;5092178;28;20479;-76
2022/07/22 02:19:41;;;;;;;5.18;1.60;;;16.30;99.90;;;;;;5091911;28;20129;-75
2022/07/22 02:22:07;;;;;;;4.53;1.40;;;16.20;99.90;;;;;;5092121;28;20046;-75
2022/07/22 02:24:33;;;;;;;5.97;1.83;;;16.20;99.90;;;;;;5092278;28;20546;-75
2022/07/22 02:26:58;;;;;;;6.45;1.70;;;16.20;99.90;;;;;;5091964;28;20448;-75
2022/07/22 02:29:24;;;;;;;11.50;2.38;;;16.20;99.90;;;;;;5092001;28;20044;-75
2022/07/22 02:31:50;;;;;;;12.65;2.45;;;16.30;99.90;;;;;;5092237;28;20105;-75
2022/07/22 02:34:17;;;;;;;11.27;2.47;;;16.20;99.90;;;;;;5092288;28;20040;-75
2022/07/22 02:36:42;;;;;;;9.73;2.42;;;16.30;99.90;;;;;;5092058;28;20048;-75
2022/07/22 02:39:08;;;;;;;11.93;2.13;;;16.20;99.90;;;;;;5093159;28;20047;-75
2022/07/22 02:41:34;;;;;;;6.70;2.13;;;16.30;99.90;;;;;;5092008;28;20048;-74
2022/07/22 02:44:00;;;;;;;6.53;2.08;;;16.30;99.90;;;;;;5093301;28;20044;-75
2022/07/22 02:46:28;;;;;;;9.98;2.13;;;16.30;99.90;;;;;;5093211;28;20043;-75
2022/07/22 02:48:54;;;;;;;7.82;1.63;;;16.30;99.90;;;;;;5092271;28;20075;-75
2022/07/22 02:51:20;;;;;;;8.10;2.05;;;16.30;99.90;;;;;;5093491;28;20051;-75
2022/07/22 02:53:46;;;;;;;8.43;2.00;;;16.30;99.90;;;;;;5096889;28;20055;-75
2022/07/22 02:56:12;;;;;;;6.63;1.55;;;16.30;99.90;;;;;;5095432;28;20043;-76
2022/07/22 02:58:38;;;;;;;5.78;2.55;;;16.30;99.90;;;;;;5095333;28;20036;-75
2022/07/22 03:01:04;;;;;;;9.70;1.80;;;16.30;99.90;;;;;;5095432;28;20040;-75
2022/07/22 03:03:30;;;;;;;9.23;1.70;;;16.20;99.90;;;;;;5096834;28;20089;-75
2022/07/22 03:05:55;;;;;;;9.73;2.13;;;16.20;99.90;;;;;;5096681;28;20372;-75
2022/07/22 03:08:21;;;;;;;7.00;1.60;;;16.20;99.90;;;;;;5095029;28;20445;-75
2022/07/22 03:10:46;;;;;;;6.93;1.98;;;16.20;99.90;;;;;;5096326;28;20070;-75
2022/07/22 03:13:12;;;;;;;9.75;2.03;;;16.20;99.90;;;;;;5096208;28;20067;-76
2022/07/22 03:15:38;;;;;;;7.32;1.70;;;16.10;99.90;;;;;;5095084;28;20039;-75
2022/07/22 03:18:03;;;;;;;6.28;1.70;;;16.00;99.90;;;;;;5095210;28;20056;-75
2022/07/22 03:20:29;;;;;;;9.35;2.20;;;16.00;99.90;;;;;;5094875;28;20064;-75
2022/07/22 03:22:55;;;;;;;7.53;1.80;;;16.00;99.90;;;;;;5095775;28;20055;-75
2022/07/22 03:25:20;;;;;;;6.47;1.80;;;16.10;99.90;;;;;;5095090;28;20051;-75
2022/07/22 03:27:46;;;;;;;8.05;1.90;;;16.10;99.90;;;;;;5096261;28;20443;-75
2022/07/22 03:30:12;;;;;;;8.02;1.63;;;16.10;99.90;;;;;;5094839;28;20097;-75
2022/07/22 03:32:37;;;;;;;8.35;1.70;;;16.10;99.90;;;;;;5094808;28;20074;-75
2022/07/22 03:35:04;;;;;;;8.30;2.08;;;16.10;99.90;;;;;;5094856;28;20040;-75
2022/07/22 03:37:29;;;;;;;6.18;1.65;;;16.20;99.90;;;;;;5094672;28;20059;-75
2022/07/22 03:39:55;;;;;;;7.25;1.92;;;16.20;99.90;;;;;;5094394;28;20048;-75
2022/07/22 03:42:20;;;;;;;6.55;1.80;;;16.20;99.90;;;;;;5095525;28;20047;-75
2022/07/22 03:44:46;;;;;;;10.55;2.40;;;16.10;99.90;;;;;;5094036;28;20043;-75
2022/07/22 03:47:16;;;;;;;6.13;1.65;;;16.20;99.90;;;;;;5094264;28;20534;-75
2022/07/22 03:49:42;;;;;;;7.80;2.22;;;16.10;99.90;;;;;;5094856;28;20498;-75
2022/07/22 03:52:08;;;;;;;6.55;1.52;;;16.10;99.90;;;;;;5093659;28;20096;-74
2022/07/22 03:54:33;;;;;;;7.35;1.70;;;16.10;99.90;;;;;;5093129;28;20172;-75
2022/07/22 03:56:59;;;;;;;11.15;2.25;;;16.10;99.90;;;;;;5095665;28;20107;-75
2022/07/22 03:59:24;;;;;;;9.30;1.88;;;16.10;99.90;;;;;;5095285;28;20377;-75
2022/07/22 04:01:50;;;;;;;6.43;1.70;;;16.20;99.90;;;;;;5095295;28;20052;-76
2022/07/22 04:04:16;;;;;;;8.45;1.70;;;16.20;99.90;;;;;;5093546;28;20055;-75
2022/07/22 04:06:41;;;;;;;10.65;2.67;;;16.10;99.90;;;;;;5093887;28;20048;-75
2022/07/22 04:09:07;;;;;;;6.60;1.77;;;16.10;99.90;;;;;;5094174;28;20079;-75
2022/07/22 04:11:33;;;;;;;5.63;1.58;;;16.00;99.90;;;;;;5094121;28;20048;-75
2022/07/22 04:14:00;;;;;;;8.25;1.58;;;16.10;99.90;;;;;;5095242;28;20036;-75
2022/07/22 04:16:25;;;;;;;6.40;1.52;;;16.10;99.90;;;;;;5095088;28;20439;-75
2022/07/22 04:18:51;;;;;;;8.43;1.80;;;16.00;99.90;;;;;;5093691;28;20475;-75
2022/07/22 04:21:17;;;;;;;6.50;1.40;;;16.00;99.90;;;;;;5094862;28;20054;-75
2022/07/22 04:23:43;;;;;;;7.22;1.90;;;16.10;99.90;;;;;;5093511;28;20052;-75
2022/07/22 04:26:08;;;;;;;7.38;1.98;;;16.00;99.90;;;;;;5093584;28;20101;-75
2022/07/22 04:28:34;;;;;;;5.05;1.90;;;16.10;99.90;;;;;;5093461;28;20097;-75
2022/07/22 04:31:02;;;;;;;8.73;1.85;;;16.10;99.90;;;;;;5093499;28;20046;-75
2022/07/22 04:33:28;;;;;;;8.77;2.03;;;16.10;99.90;;;;;;5093676;28;20059;-75
2022/07/22 04:35:53;;;;;;;9.35;1.92;;;16.10;99.90;;;;;;5093460;28;20040;-75
2022/07/22 04:38:19;;;;;;;7.00;3.05;;;16.00;99.90;;;;;;5094836;28;20047;-75
2022/07/22 04:40:44;;;;;;;5.22;1.48;;;16.00;99.90;;;;;;5093704;28;20399;-75
2022/07/22 04:43:10;;;;;;;5.25;1.50;;;16.00;99.90;;;;;;5094691;28;20044;-75
2022/07/22 04:45:36;;;;;;;4.72;1.38;;;16.10;99.90;;;;;;5094679;28;20044;-76
2022/07/22 04:48:01;;;;;;;5.47;1.95;;;16.10;99.90;;;;;;5093159;28;20040;-75
2022/07/22 04:50:27;;;;;;;7.93;1.60;;;16.10;99.90;;;;;;5093046;28;20053;-75
2022/07/22 04:52:53;;;;;;;7.90;1.70;;;16.10;99.90;;;;;;5094359;28;20544;-75
2022/07/22 04:55:18;;;;;;;4.95;1.48;;;16.20;99.90;;;;;;5093092;28;20048;-75
2022/07/22 04:57:44;;;;;;;8.20;1.90;;;16.20;99.90;;;;;;5093366;28;20080;-75
2022/07/22 05:00:10;;;;;;;8.80;2.00;;;16.10;99.90;;;;;;5092953;28;20134;-76
2022/07/22 05:02:36;;;;;;;7.28;1.85;;;16.20;99.90;;;;;;5093170;28;20040;-76
2022/07/22 05:05:02;;;;;;;6.35;1.55;;;16.20;99.90;;;;;;5092849;28;20048;-75
2022/07/22 05:07:27;;;;;;;6.32;1.70;;;16.20;99.90;;;;;;5094415;28;20101;-76
2022/07/22 05:09:53;;;;;;;8.55;1.60;;;16.20;99.90;;;;;;5094171;28;20032;-75
2022/07/22 05:12:18;;;;;;;8.40;1.67;;;16.20;99.90;;;;;;5094328;28;20040;-75
2022/07/22 05:14:44;;;;;;;9.60;1.92;;;16.10;99.90;;;;;;5092251;28;20437;-75
2022/07/22 05:17:11;;;;;;;5.97;2.03;;;16.10;99.90;;;;;;5092699;28;20048;-75
2022/07/22 05:19:39;;;;;;;4.28;1.60;;;16.20;99.90;;;;;;5090166;28;20048;-75
2022/07/22 05:22:08;;;;;;;6.55;1.90;;;16.20;99.90;;;;;;5082360;28;20060;-74
2022/07/22 05:24:35;;;;;;;8.55;1.80;;;16.20;99.90;;;;;;5072184;28;20070;-75
2022/07/22 05:27:00;;;;;;;10.05;2.20;;;16.20;99.90;;;;;;5072131;28;20052;-75
2022/07/22 05:29:26;;;;;;;5.72;1.63;;;16.20;99.90;;;;;;5072143;28;20053;-74
2022/07/22 05:31:52;;;;;;;7.93;1.52;;;16.20;99.90;;;;;;5072079;28;20043;-75
2022/07/22 05:34:17;;;;;;;10.13;1.58;;;16.30;99.90;;;;;;5072256;28;20105;-75
2022/07/22 05:36:43;;;;;;;6.15;1.17;;;16.30;99.90;;;;;;5072029;28;20044;-75
2022/07/22 05:39:09;;;;;;;5.45;1.40;;;16.30;99.90;;;;;;5073320;28;20165;-75
2022/07/22 05:41:35;;;;;;;4.50;1.38;;;16.30;99.90;;;;;;5072003;28;20384;-75
2022/07/22 05:44:00;;;;;;;3.15;1.13;;;16.40;99.90;;;;;;5072022;28;20049;-75
2022/07/22 05:46:26;;;;;;;6.65;1.73;;;16.40;99.90;;;;;;5072180;28;20106;-76
2022/07/22 05:48:52;;;;;;;6.80;1.25;;;16.50;99.90;;;;;;5071908;28;20555;-75
2022/07/22 05:51:17;;;;;;;4.35;1.10;;;16.40;99.90;;;;;;5088739;28;20040;-75
2022/07/22 05:53:44;;;;;;;7.60;1.52;;;16.50;99.90;;;;;;5073434;28;20044;-75
2022/07/22 05:56:11;;;;;;;4.03;1.48;;;16.50;99.90;;;;;;5073371;28;20037;-76
2022/07/22 05:58:40;;;;;;;4.82;1.38;;;16.50;99.90;;;;;;5071756;28;20057;-75
2022/07/22 06:01:07;;;;;;;5.38;1.48;;;16.50;99.90;;;;;;5073143;28;20063;-75
2022/07/22 06:03:32;;;;;;;5.20;1.65;;;16.40;99.90;;;;;;5073213;28;20051;-74
2022/07/22 06:05:58;;;;;;;4.10;1.33;;;16.40;99.90;;;;;;5072008;28;20147;-78
2022/07/22 06:08:24;;;;;;;7.78;1.35;;;16.40;99.90;;;;;;5073177;28;20389;-76
2022/07/22 06:10:50;;;;;;;5.13;1.33;;;16.40;99.90;;;;;;5073269;28;20079;-74
2022/07/22 06:13:15;;;;;;;6.93;1.50;;;16.40;99.90;;;;;;5073090;28;20207;-74
2022/07/22 06:15:41;;;;;;;7.22;1.70;;;16.50;99.90;;;;;;5073196;28;20090;-75
2022/07/22 06:18:07;;;;;;;7.15;1.23;;;16.50;99.90;;;;;;5072058;28;20098;-75
2022/07/22 06:20:32;;;;;;;3.13;1.10;;;16.50;99.90;;;;;;5072052;28;20057;-75
2022/07/22 06:22:58;;;;;;;10.25;1.20;;;16.50;99.90;;;;;;5071599;28;20399;-75
2022/07/22 06:25:24;;;;;;;4.93;1.70;;;16.50;99.90;;;;;;5072390;28;20052;-75
2022/07/22 06:27:49;;;;;;;6.43;1.50;;;16.50;99.90;;;;;;5075932;28;20051;-75
2022/07/22 06:30:15;;;;;;;6.57;1.73;;;16.50;99.90;;;;;;5075610;28;20048;-76
2022/07/22 06:32:41;;;;;;;5.82;1.27;;;16.60;99.90;;;;;;5076960;28;20044;-75
2022/07/22 06:35:07;;;;;;;5.93;1.52;;;16.70;99.90;;;;;;5075511;28;20101;-76
2022/07/22 06:37:32;;;;;;;7.13;1.30;;;16.60;99.90;;;;;;5076728;28;20543;-75
2022/07/22 06:39:58;;;;;;;3.38;1.30;;;16.70;99.90;;;;;;5075313;28;20143;-75
2022/07/22 06:42:24;;;;;;;5.90;1.40;;;16.70;99.90;;;;;;5075332;28;20136;-75
2022/07/22 06:44:51;;;;;;;6.80;1.38;;;16.70;99.90;;;;;;5075329;28;20246;-75
2022/07/22 06:47:17;;;;;;;7.30;1.63;;;16.70;99.90;;;;;;5076681;28;20068;-75
2022/07/22 06:49:42;;;;;;;5.70;1.40;;;16.80;99.90;;;;;;5076347;28;20078;-75
2022/07/22 06:52:08;;;;;;;7.55;1.80;;;16.80;99.90;;;;;;5075262;28;20059;-75
2022/07/22 06:54:33;;;;;;;6.78;1.58;;;16.80;99.90;;;;;;5075237;28;20033;-75
2022/07/22 06:56:59;;;;;;;5.68;1.80;;;16.90;99.90;;;;;;5075282;28;20052;-75
2022/07/22 06:59:25;;;;;;;5.70;1.42;;;16.80;99.90;;;;;;5076496;28;20549;-75
2022/07/22 07:01:50;;;;;;;7.28;1.77;;;16.90;99.90;;;;;;5074925;28;20040;-75
2022/07/22 07:04:18;;;;;;;8.32;1.83;;;16.90;99.90;;;;;;5076193;28;20136;-75
2022/07/22 07:06:44;;;;;;;4.18;1.60;;;16.80;99.90;;;;;;5076159;28;20045;-75
2022/07/22 07:09:10;;;;;;;7.30;2.40;;;16.80;99.90;;;;;;5075191;28;20086;-75
2022/07/22 07:11:35;;;;;;;9.73;1.70;;;16.80;99.90;;;;;;5076021;28;20040;-75
2022/07/22 07:14:01;;;;;;;9.10;1.52;;;16.80;99.90;;;;;;5075957;28;20504;-75
2022/07/22 07:16:27;;;;;;;6.63;2.25;;;16.80;99.90;;;;;;5075998;28;20541;-75
2022/07/22 07:18:52;;;;;;;6.90;2.08;;;16.80;99.90;;;;;;5074708;28;20127;-75
2022/07/22 07:21:18;;;;;;;9.27;1.73;;;16.70;99.90;;;;;;5074998;28;20364;-75
2022/07/22 07:23:43;;;;;;;6.95;1.80;;;16.80;99.90;;;;;;5074439;28;20052;-75
2022/07/22 07:26:09;;;;;;;5.60;1.70;;;16.70;99.90;;;;;;5076059;28;20053;-75
2022/07/22 07:28:35;;;;;;;5.13;1.40;;;16.70;99.90;;;;;;5074534;28;20040;-75
2022/07/22 07:31:01;;;;;;;4.75;1.40;;;16.70;99.90;;;;;;5074626;28;20044;-75
2022/07/22 07:33:27;;;;;;;4.45;1.48;;;16.70;99.90;;;;;;5075682;28;20055;-75
2022/07/22 07:35:52;;;;;;;5.18;1.42;;;16.80;99.90;;;;;;5074391;28;20047;-75
2022/07/22 07:38:18;;;;;;;4.28;1.40;;;16.80;99.90;;;;;;5073448;28;20037;-75
2022/07/22 07:40:44;;;;;;;4.93;1.70;;;16.90;99.90;;;;;;5075549;28;20403;-75
2022/07/22 07:43:10;;;;;;;7.28;1.45;;;16.90;99.90;;;;;;5075696;28;20041;-75
2022/07/22 07:45:36;;;;;;;7.05;1.70;;;16.90;99.90;;;;;;5075624;28;20047;-75
2022/07/22 07:48:03;;;;;;;5.22;1.50;;;17.00;99.90;;;;;;5075493;28;20388;-75
2022/07/22 07:50:29;;;;;;;3.95;1.13;;;17.10;99.90;;;;;;5074338;28;20059;-75
2022/07/22 07:52:56;;;;;;;6.47;1.20;;;17.10;99.90;;;;;;5075615;28;20086;-75
2022/07/22 07:55:22;;;;;;;4.07;1.80;;;17.10;99.90;;;;;;5075384;28;20418;-75
2022/07/22 07:57:49;;;;;;;4.90;1.50;;;17.10;99.90;;;;;;5075391;28;20072;-75
2022/07/22 08:00:17;;;;;;;3.35;1.00;;;17.20;99.90;;;;;;5073991;28;20611;-75
2022/07/22 08:02:43;;;;;;;7.57;1.50;;;17.30;99.90;;;;;;5075362;28;20040;-75
2022/07/22 08:05:08;;;;;;;3.67;1.25;;;17.30;99.90;;;;;;5073799;28;20152;-75
2022/07/22 08:07:34;;;;;;;9.50;1.80;;;17.40;99.90;;;;;;5074983;28;20034;-75
2022/07/22 08:10:00;;;;;;;3.80;1.35;;;17.50;99.90;;;;;;5074910;28;20072;-75
2022/07/22 08:12:26;;;;;;;9.70;1.67;;;17.50;99.90;;;;;;5075114;28;20388;-75
2022/07/22 08:14:51;;;;;;;7.40;1.45;;;17.50;99.90;;;;;;5075107;28;20377;-75
2022/07/22 08:17:17;;;;;;;7.95;1.38;;;17.60;99.90;;;;;;5073772;28;20072;-75
2022/07/22 08:19:43;;;;;;;6.18;1.27;;;17.50;99.90;;;;;;5073446;28;20496;-75
2022/07/22 08:22:09;;;;;;;4.13;1.45;;;17.50;99.90;;;;;;5073285;28;20140;-75
2022/07/22 08:24:34;;;;;;;5.22;1.30;;;17.50;99.90;;;;;;5074611;28;20084;-75
2022/07/22 08:27:00;;;;;;;3.38;1.00;;;17.50;99.90;;;;;;5073629;28;20040;-75
2022/07/22 08:29:26;;;;;;;5.50;1.50;;;17.50;99.90;;;;;;5074630;28;20052;-75
2022/07/22 08:31:51;;;;;;;3.97;1.10;;;17.50;99.90;;;;;;5074544;28;20040;-75
2022/07/22 08:34:17;;;;;;;5.30;1.35;;;17.50;99.90;;;;;;5073302;28;20049;-75
2022/07/22 08:36:43;;;;;;;7.60;1.50;;;17.60;99.90;;;;;;5074669;28;20045;-75
2022/07/22 08:39:08;;;;;;;4.72;1.25;;;17.70;99.90;;;;;;5073138;28;20049;-75
2022/07/22 08:41:37;;;;;;;2.92;0.65;;;17.70;99.90;;;;;;5073093;28;20044;-75
2022/07/22 08:44:04;;;;;;;7.38;1.40;;;17.80;99.90;;;;;;5073249;28;20523;-75
2022/07/22 08:46:31;;;;;;;3.10;0.85;;;17.80;99.90;;;;;;5074489;28;20494;-75
2022/07/22 08:48:58;;;;;;;2.38;0.63;;;17.80;99.90;;;;;;5074024;28;20507;-75
2022/07/22 08:51:24;;;;;;;3.30;1.02;;;17.90;99.90;;;;;;5074249;28;20036;-75
2022/07/22 08:53:49;;;;;;;5.93;0.90;;;18.00;99.90;;;;;;5073141;28;20055;-75
2022/07/22 08:56:15;;;;;;;4.22;1.08;;;18.10;99.90;;;;;;5074087;28;20045;-75
2022/07/22 08:58:41;;;;;;;2.03;0.90;;;18.20;99.90;;;;;;5074183;28;20037;-75
2022/07/22 09:01:12;;;;;;;4.72;1.10;;;18.20;99.90;;;;;;5074193;28;20545;-75
2022/07/22 09:03:50;;;;;;;3.55;1.00;;;18.40;99.90;;;;;;5073156;28;20040;-75
2022/07/22 09:06:22;;;;;;;3.50;1.17;;;18.40;99.90;;;;;;5072940;28;20048;-75
2022/07/22 09:09:04;;;;;;;3.93;0.87;;;18.50;99.90;;;;;;5089728;28;20559;-75
2022/07/22 09:11:31;;;;;;;7.10;1.13;;;18.60;99.90;;;;;;5073879;28;20044;-75
2022/07/22 09:13:59;;;;;;;4.05;1.00;;;18.60;99.90;;;;;;5074013;28;20043;-75
2022/07/22 09:16:43;;;;;;;3.20;0.88;;;18.70;99.90;;;;;;5073898;28;20119;-75
2022/07/22 09:19:10;;;;;;;2.30;0.60;;;18.90;99.90;;;;;;5072308;28;20598;-75
2022/07/22 09:21:47;;;;;;;5.60;0.98;;;19.00;99.90;;;;;;5072540;28;20040;-75
2022/07/22 09:24:30;;;;;;;1.77;0.70;;;19.10;99.90;;;;;;5073916;28;20056;-75
2022/07/22 09:26:56;;;;;;;1.75;0.50;;;19.30;99.90;;;;;;5072367;28;20158;-75
2022/07/22 09:29:22;;;;;;;1.98;0.70;;;19.30;99.90;;;;;;5072140;28;20131;-75
2022/07/22 09:31:52;;;;;;;2.08;0.77;;;19.30;99.90;;;;;;5072628;28;20071;-75
2022/07/22 09:34:34;;;;;;;3.97;0.60;;;19.40;99.90;;;;;;5072309;28;20048;-75
2022/07/22 09:37:00;;;;;;;3.58;0.75;;;19.50;99.90;;;;;;5072456;28;20048;-75
2022/07/22 09:39:32;;;;;;;2.78;0.82;;;19.40;99.90;;;;;;5073680;28;20045;-75
2022/07/22 09:42:03;;;;;;;3.45;0.70;;;19.30;99.90;;;;;;5089056;28;20047;-75
2022/07/22 09:44:29;;;;;;;3.38;0.80;;;19.20;99.90;;;;;;5072470;28;20480;-75
2022/07/22 09:46:54;;;;;;;4.32;0.70;;;19.10;99.90;;;;;;5073622;28;20081;-75
2022/07/22 09:49:31;;;;;;;5.93;1.20;;;19.10;99.90;;;;;;5073536;28;20044;-75
2022/07/22 09:51:57;;;;;;;2.10;0.30;;;19.00;99.90;;;;;;5072344;28;20059;-75
2022/07/22 09:54:23;;;;;;;1.33;0.30;;;18.90;99.90;;;;;;5073419;28;20040;-75
2022/07/22 09:56:49;;;;;;;4.15;0.60;;;18.80;99.90;;;;;;5071979;28;20186;-75
2022/07/22 09:59:14;;;;;;;1.88;0.52;;;18.60;99.90;;;;;;5071996;28;20488;-75
2022/07/22 10:01:41;;;;;;;2.35;0.50;;;18.50;99.90;;;;;;5074550;28;20037;-75
2022/07/22 10:04:09;;;;;;;4.18;0.55;;;18.40;99.90;;;;;;5077384;28;20075;-75
2022/07/22 10:06:37;;;;;;;4.18;0.60;;;18.50;99.90;;;;;;5076327;28;20044;-75
2022/07/22 10:09:06;;;;;;;3.22;0.50;;;18.50;99.90;;;;;;5076004;28;20440;-75
2022/07/22 10:11:33;;;;;;;1.27;0.40;;;18.50;99.90;;;;;;5077196;28;20099;-75
2022/07/22 10:13:59;;;;;;;1.73;0.40;;;18.60;99.90;;;;;;5077509;28;20058;-75
2022/07/22 10:16:25;;;;;;;2.53;0.80;;;18.60;99.90;;;;;;5076231;28;20088;-75
2022/07/22 10:18:51;;;;;;;5.28;0.68;;;18.70;99.90;;;;;;5076107;28;20076;-75
2022/07/22 10:21:17;;;;;;;2.80;0.70;;;18.80;99.90;;;;;;5076221;28;20059;-75
2022/07/22 10:24:08;;;;;;;3.30;0.57;;;18.80;99.90;;;;;;5076813;28;20056;-75
2022/07/22 10:27:06;;;;;;;5.22;0.73;;;18.80;99.90;;;;;;5075640;28;20434;-75
2022/07/22 10:29:39;;;;;;;4.38;0.77;;;18.90;99.90;;;;;;5043179;28;20510;-75
2022/07/22 10:32:17;;;;;;;5.80;0.82;;;19.00;99.90;;;;;;5075594;28;20048;-75
2022/07/22 10:34:59;;;;;;;5.40;0.90;;;19.20;99.90;;;;;;5076696;28;20452;-75
2022/07/22 10:37:47;;;;;;;6.20;1.05;;;19.20;99.90;;;;;;5075460;28;20067;-75
2022/07/22 10:40:14;;;;;;;4.10;0.70;;;19.10;99.90;;;;;;5075302;28;20052;-75
2022/07/22 10:43:02;;;;;;;2.30;0.70;;;19.10;99.90;;;;;;5076806;28;20037;-75
2022/07/22 10:45:32;;;;;;;5.43;0.80;;;19.10;99.90;;;;;;5075616;28;20064;-75
2022/07/22 10:47:59;;;;;;;3.63;1.02;;;19.10;99.90;;;;;;5076683;28;20053;-75
2022/07/22 10:50:41;;;;;;;3.33;0.80;;;19.10;99.90;;;;;;5076705;28;20127;-75
2022/07/22 10:53:12;;;;;;;3.58;0.70;;;19.20;99.90;;;;;;5075097;28;20115;-75
2022/07/22 10:55:59;;;;;;;6.22;1.02;;;19.30;99.90;;;;;;5075149;28;20123;-75
2022/07/22 10:58:34;;;;;;;5.10;0.95;;;19.20;99.90;;;;;;5044927;28;20075;-75
2022/07/22 11:01:08;;;;;;;5.43;1.30;;;19.30;99.90;;;;;;5076507;28;20141;-75
2022/07/22 11:03:37;;;;;;;4.43;1.17;;;19.30;99.90;;;;;;5076186;28;20484;-75
2022/07/22 11:06:16;;;;;;;5.10;1.23;;;19.50;99.90;;;;;;5076313;28;20072;-75
2022/07/22 11:08:43;;;;;;;4.05;1.00;;;19.60;99.90;;;;;;5076363;28;20036;-75
2022/07/22 11:11:09;;;;;;;3.92;0.98;;;19.70;99.90;;;;;;5076236;28;20060;-75
2022/07/22 11:13:37;;;;;;;5.72;1.15;;;19.80;99.90;;;;;;5073386;28;20037;-75
2022/07/22 11:16:24;;;;;;;6.45;1.13;;;19.80;99.90;;;;;;5076207;28;20048;-75
2022/07/22 11:18:52;;;;;;;5.22;1.60;;;19.90;99.90;;;;;;5076064;28;20040;-75
2022/07/22 11:21:23;;;;;;;5.90;1.02;;;19.90;99.90;;;;;;5076187;28;20048;-75
2022/07/22 11:23:50;;;;;;;6.95;1.10;;;20.00;99.90;;;;;;5074779;28;20049;-75
2022/07/22 11:26:19;;;;;;;4.45;1.00;;;20.00;99.90;;;;;;5076006;28;20127;-75
2022/07/22 11:28:45;;;;;;;5.80;1.10;;;20.00;99.90;;;;;;5074766;28;20052;-75
2022/07/22 11:31:16;;;;;;;4.28;1.10;;;20.00;99.90;;;;;;5075754;28;20094;-75
2022/07/22 11:33:42;;;;;;;5.38;1.00;;;19.90;99.90;;;;;;5076091;28;20068;-75
2022/07/22 11:36:11;;;;;;;6.40;1.25;;;19.90;99.90;;;;;;5075869;28;20079;-75
2022/07/22 11:39:04;;;;;;;2.85;0.90;;;19.80;99.90;;;;;;5074737;28;20373;-75
2022/07/22 11:41:31;;;;;;;6.03;1.02;;;19.80;99.90;;;;;;5073315;28;20504;-75
2022/07/22 11:43:57;;;;;;;4.60;1.40;;;19.70;99.90;;;;;;5075782;28;20086;-75
2022/07/22 11:46:25;;;;;;;2.67;1.10;;;19.70;99.90;;;;;;5074199;28;20048;-75
2022/07/22 11:48:51;;;;;;;7.57;1.10;;;19.60;99.90;;;;;;5075601;28;20387;-75
2022/07/22 11:51:17;;;;;;;6.45;0.80;;;19.60;99.90;;;;;;5074027;28;20048;-75
2022/07/22 11:53:43;;;;;;;8.20;1.38;;;19.50;99.90;;;;;;5074045;28;20070;-75
2022/07/22 11:56:10;;;;;;;4.78;1.10;;;19.60;99.90;;;;;;5074002;28;20044;-75
2022/07/22 11:58:44;;;;;;;4.35;0.85;;;19.50;99.90;;;;;;5074372;28;20086;-75
2022/07/22 12:01:12;;;;;;;6.78;0.85;;;19.50;99.90;;;;;;5075498;28;20048;-75
2022/07/22 12:03:40;;;;;;;3.92;0.75;;;19.40;99.90;;;;;;5075304;28;20040;-75
2022/07/22 12:06:09;;;;;;;5.38;1.50;;;19.50;99.90;;;;;;5074103;28;20048;-75
2022/07/22 12:08:41;;;;;;;3.20;0.95;;;19.50;99.90;;;;;;5074986;28;20365;-75
2022/07/22 12:11:08;;;;;;;6.85;1.25;;;19.50;99.90;;;;;;5074104;28;20155;-75
2022/07/22 12:13:34;;;;;;;7.18;0.90;;;19.60;99.90;;;;;;5073727;28;20517;-75
2022/07/22 12:16:15;;;;;;;2.50;0.80;;;19.50;99.90;;;;;;5073822;28;20083;-75
2022/07/22 12:18:41;;;;;;;4.43;0.98;;;19.40;99.90;;;;;;5075014;28;20045;-75
2022/07/22 12:21:07;;;;;;;2.05;0.80;;;19.50;99.90;;;;;;5073471;28;20048;-75
2022/07/22 12:23:33;;;;;;;5.18;0.98;;;19.60;99.90;;;;;;5074141;28;20060;-75
2022/07/22 12:26:02;;;;;;;3.92;0.90;;;19.50;99.90;;;;;;5074904;28;20044;-75
2022/07/22 12:28:28;;;;;;;3.05;1.05;;;19.60;99.90;;;;;;5074554;28;20446;-75
2022/07/22 12:30:55;;;;;;;5.05;0.95;;;19.50;99.90;;;;;;5074504;28;20063;-75
2022/07/22 12:33:22;;;;;;;3.17;0.90;;;19.60;99.90;;;;;;5074539;28;20085;-75
2022/07/22 12:36:03;;;;;;;5.30;0.88;;;19.60;99.90;;;;;;5074747;28;20044;-75
2022/07/22 12:38:29;;;;;;;1.95;0.70;;;19.60;99.90;;;;;;5073059;28;20044;-75
2022/07/22 12:40:55;;;;;;;6.15;1.33;;;19.60;99.90;;;;;;5073041;28;20052;-75
2022/07/22 12:43:25;;;;;;;5.00;0.90;;;19.70;99.90;;;;;;5072958;28;20041;-75
2022/07/22 12:45:51;;;;;;;2.40;0.80;;;19.70;99.90;;;;;;5073299;28;20438;-75